sensor_id;sensor_type;location;lat;lon;timestamp;temperature;humidity
75769;DHT22;64379;48.888;8.330;2024-02-26T00:00:17;10.80;42.20
75769;DHT22;64379;48.888;8.330;2024-02-26T00:02:44;10.80;42.00
75769;DHT22;64379;48.888;8.330;2024-02-26T00:05:10;10.80;41.90
75769;DHT22;64379;48.888;8.330;2024-02-26T00:07:35;10.70;42.20
75769;DHT22;64379;48.888;8.330;2024-02-26T00:10:01;10.70;42.30
75769;DHT22;64379;48.888;8.330;2024-02-26T00:12:27;10.70;42.40
75769;DHT22;64379;48.888;8.330;2024-02-26T00:14:53;10.60;42.50
75769;DHT22;64379;48.888;8.330;2024-02-26T00:17:19;10.70;42.00
75769;DHT22;64379;48.888;8.330;2024-02-26T00:19:44;10.80;41.80
75769;DHT22;64379;48.888;8.330;2024-02-26T00:22:10;10.90;41.50
75769;DHT22;64379;48.888;8.330;2024-02-26T00:24:35;10.90;41.90
75769;DHT22;64379;48.888;8.330;2024-02-26T00:27:01;10.90;42.50
75769;DHT22;64379;48.888;8.330;2024-02-26T00:29:27;10.80;42.90
75769;DHT22;64379;48.888;8.330;2024-02-26T00:31:52;10.80;43.20
75769;DHT22;64379;48.888;8.330;2024-02-26T00:34:18;10.80;43.60
75769;DHT22;64379;48.888;8.330;2024-02-26T00:36:44;10.70;43.80
75769;DHT22;64379;48.888;8.330;2024-02-26T00:39:11;10.70;44.10
75769;DHT22;64379;48.888;8.330;2024-02-26T00:41:40;10.70;44.30
75769;DHT22;64379;48.888;8.330;2024-02-26T00:44:06;10.60;44.70
75769;DHT22;64379;48.888;8.330;2024-02-26T00:46:32;10.50;45.10
75769;DHT22;64379;48.888;8.330;2024-02-26T00:48:58;10.50;45.20
75769;DHT22;64379;48.888;8.330;2024-02-26T00:51:23;10.50;45.10
75769;DHT22;64379;48.888;8.330;2024-02-26T00:53:49;10.50;45.50
75769;DHT22;64379;48.888;8.330;2024-02-26T00:56:14;10.40;45.70
75769;DHT22;64379;48.888;8.330;2024-02-26T00:58:40;10.30;46.00
75769;DHT22;64379;48.888;8.330;2024-02-26T01:01:05;10.30;47.10
75769;DHT22;64379;48.888;8.330;2024-02-26T01:03:31;10.10;49.60
75769;DHT22;64379;48.888;8.330;2024-02-26T01:05:57;9.80;51.80
75769;DHT22;64379;48.888;8.330;2024-02-26T01:08:22;9.70;52.10
75769;DHT22;64379;48.888;8.330;2024-02-26T01:10:48;9.70;53.20
75769;DHT22;64379;48.888;8.330;2024-02-26T01:13:14;9.70;53.90
75769;DHT22;64379;48.888;8.330;2024-02-26T01:15:39;9.50;54.40
75769;DHT22;64379;48.888;8.330;2024-02-26T01:18:05;9.30;56.50
75769;DHT22;64379;48.888;8.330;2024-02-26T01:20:31;9.20;56.80
75769;DHT22;64379;48.888;8.330;2024-02-26T01:22:56;9.20;57.40
75769;DHT22;64379;48.888;8.330;2024-02-26T01:25:22;9.00;58.70
75769;DHT22;64379;48.888;8.330;2024-02-26T01:27:47;9.00;58.60
75769;DHT22;64379;48.888;8.330;2024-02-26T01:30:13;9.00;60.30
75769;DHT22;64379;48.888;8.330;2024-02-26T01:32:41;8.90;61.20
75769;DHT22;64379;48.888;8.330;2024-02-26T01:35:07;8.80;61.40
75769;DHT22;64379;48.888;8.330;2024-02-26T01:37:35;8.80;62.60
75769;DHT22;64379;48.888;8.330;2024-02-26T01:40:01;8.70;63.40
75769;DHT22;64379;48.888;8.330;2024-02-26T01:42:29;8.60;63.00
75769;DHT22;64379;48.888;8.330;2024-02-26T01:44:56;8.60;63.10
75769;DHT22;64379;48.888;8.330;2024-02-26T01:47:22;8.60;64.90
75769;DHT22;64379;48.888;8.330;2024-02-26T01:49:49;8.40;65.60
75769;DHT22;64379;48.888;8.330;2024-02-26T01:52:15;8.40;64.50
75769;DHT22;64379;48.888;8.330;2024-02-26T01:54:42;8.30;64.70
75769;DHT22;64379;48.888;8.330;2024-02-26T01:57:11;8.10;66.60
75769;DHT22;64379;48.888;8.330;2024-02-26T01:59:38;8.00;68.00
75769;DHT22;64379;48.888;8.330;2024-02-26T02:02:07;7.80;68.90
75769;DHT22;64379;48.888;8.330;2024-02-26T02:04:36;7.80;69.60
75769;DHT22;64379;48.888;8.330;2024-02-26T02:07:02;7.60;69.70
75769;DHT22;64379;48.888;8.330;2024-02-26T02:09:28;7.50;71.40
75769;DHT22;64379;48.888;8.330;2024-02-26T02:11:54;7.50;72.50
75769;DHT22;64379;48.888;8.330;2024-02-26T02:14:20;7.40;73.70
75769;DHT22;64379;48.888;8.330;2024-02-26T02:16:47;7.20;74.20
75769;DHT22;64379;48.888;8.330;2024-02-26T02:19:13;7.20;75.70
75769;DHT22;64379;48.888;8.330;2024-02-26T02:21:39;7.20;76.20
75769;DHT22;64379;48.888;8.330;2024-02-26T02:24:05;7.20;77.80
75769;DHT22;64379;48.888;8.330;2024-02-26T02:26:30;7.10;79.40
75769;DHT22;64379;48.888;8.330;2024-02-26T02:28:56;7.00;80.20
75769;DHT22;64379;48.888;8.330;2024-02-26T02:31:22;7.00;80.70
75769;DHT22;64379;48.888;8.330;2024-02-26T02:33:48;6.80;80.90
75769;DHT22;64379;48.888;8.330;2024-02-26T02:36:14;6.80;81.00
75769;DHT22;64379;48.888;8.330;2024-02-26T02:38:49;6.70;81.70
75769;DHT22;64379;48.888;8.330;2024-02-26T02:41:18;6.70;83.10
75769;DHT22;64379;48.888;8.330;2024-02-26T02:43:44;6.60;83.70
75769;DHT22;64379;48.888;8.330;2024-02-26T02:46:09;6.60;83.90
75769;DHT22;64379;48.888;8.330;2024-02-26T02:48:37;6.50;83.70
75769;DHT22;64379;48.888;8.330;2024-02-26T02:51:03;6.60;83.90
75769;DHT22;64379;48.888;8.330;2024-02-26T02:53:28;6.60;84.00
75769;DHT22;64379;48.888;8.330;2024-02-26T02:55:54;6.70;83.60
75769;DHT22;64379;48.888;8.330;2024-02-26T02:58:19;6.70;83.80
75769;DHT22;64379;48.888;8.330;2024-02-26T03:00:45;6.60;84.10
75769;DHT22;64379;48.888;8.330;2024-02-26T03:03:11;6.60;84.10
75769;DHT22;64379;48.888;8.330;2024-02-26T03:05:37;6.60;84.40
75769;DHT22;64379;48.888;8.330;2024-02-26T03:08:02;6.50;84.60
75769;DHT22;64379;48.888;8.330;2024-02-26T03:10:28;6.50;84.70
75769;DHT22;64379;48.888;8.330;2024-02-26T03:12:54;6.50;84.70
75769;DHT22;64379;48.888;8.330;2024-02-26T03:15:19;6.50;84.60
75769;DHT22;64379;48.888;8.330;2024-02-26T03:17:45;6.50;84.60
75769;DHT22;64379;48.888;8.330;2024-02-26T03:20:10;6.60;84.90
75769;DHT22;64379;48.888;8.330;2024-02-26T03:22:38;6.60;85.20
75769;DHT22;64379;48.888;8.330;2024-02-26T03:25:05;6.70;85.20
75769;DHT22;64379;48.888;8.330;2024-02-26T03:27:31;6.80;85.20
75769;DHT22;64379;48.888;8.330;2024-02-26T03:29:56;6.80;85.30
75769;DHT22;64379;48.888;8.330;2024-02-26T03:32:22;6.80;85.30
75769;DHT22;64379;48.888;8.330;2024-02-26T03:34:48;6.80;85.20
75769;DHT22;64379;48.888;8.330;2024-02-26T03:37:13;6.90;84.90
75769;DHT22;64379;48.888;8.330;2024-02-26T03:39:39;6.70;85.00
75769;DHT22;64379;48.888;8.330;2024-02-26T03:42:04;6.60;85.10
75769;DHT22;64379;48.888;8.330;2024-02-26T03:44:30;6.60;85.40
75769;DHT22;64379;48.888;8.330;2024-02-26T03:46:55;6.50;85.70
75769;DHT22;64379;48.888;8.330;2024-02-26T03:49:21;6.40;86.20
75769;DHT22;64379;48.888;8.330;2024-02-26T03:51:48;6.30;86.50
75769;DHT22;64379;48.888;8.330;2024-02-26T03:54:13;6.30;87.00
75769;DHT22;64379;48.888;8.330;2024-02-26T03:56:39;6.30;87.20
75769;DHT22;64379;48.888;8.330;2024-02-26T03:59:05;6.30;87.40
75769;DHT22;64379;48.888;8.330;2024-02-26T04:01:30;6.40;87.60
75769;DHT22;64379;48.888;8.330;2024-02-26T04:03:56;6.50;87.60
75769;DHT22;64379;48.888;8.330;2024-02-26T04:06:21;6.60;87.80
75769;DHT22;64379;48.888;8.330;2024-02-26T04:08:48;6.60;87.80
75769;DHT22;64379;48.888;8.330;2024-02-26T04:11:14;6.60;87.70
75769;DHT22;64379;48.888;8.330;2024-02-26T04:13:43;6.60;87.70
75769;DHT22;64379;48.888;8.330;2024-02-26T04:16:11;6.60;87.60
75769;DHT22;64379;48.888;8.330;2024-02-26T04:18:37;6.70;87.60
75769;DHT22;64379;48.888;8.330;2024-02-26T04:21:03;6.60;87.50
75769;DHT22;64379;48.888;8.330;2024-02-26T04:23:30;6.60;87.70
75769;DHT22;64379;48.888;8.330;2024-02-26T04:25:56;6.60;87.60
75769;DHT22;64379;48.888;8.330;2024-02-26T04:28:22;6.60;87.70
75769;DHT22;64379;48.888;8.330;2024-02-26T04:30:47;6.50;87.80
75769;DHT22;64379;48.888;8.330;2024-02-26T04:33:16;6.40;88.00
75769;DHT22;64379;48.888;8.330;2024-02-26T04:35:42;6.50;87.80
75769;DHT22;64379;48.888;8.330;2024-02-26T04:38:08;6.60;85.80
75769;DHT22;64379;48.888;8.330;2024-02-26T04:40:33;6.70;81.90
75769;DHT22;64379;48.888;8.330;2024-02-26T04:42:59;7.00;78.10
75769;DHT22;64379;48.888;8.330;2024-02-26T04:45:24;7.20;76.70
75769;DHT22;64379;48.888;8.330;2024-02-26T04:47:50;7.20;76.70
75769;DHT22;64379;48.888;8.330;2024-02-26T04:50:16;7.20;76.60
75769;DHT22;64379;48.888;8.330;2024-02-26T04:52:42;7.20;76.70
75769;DHT22;64379;48.888;8.330;2024-02-26T04:55:07;7.10;76.90
75769;DHT22;64379;48.888;8.330;2024-02-26T04:57:33;7.10;77.20
75769;DHT22;64379;48.888;8.330;2024-02-26T04:59:59;7.10;77.30
75769;DHT22;64379;48.888;8.330;2024-02-26T05:02:25;7.00;77.40
75769;DHT22;64379;48.888;8.330;2024-02-26T05:04:50;7.00;77.40
75769;DHT22;64379;48.888;8.330;2024-02-26T05:07:16;7.00;77.90
75769;DHT22;64379;48.888;8.330;2024-02-26T05:09:44;7.00;77.40
75769;DHT22;64379;48.888;8.330;2024-02-26T05:12:10;7.10;78.20
75769;DHT22;64379;48.888;8.330;2024-02-26T05:14:35;7.10;77.80
75769;DHT22;64379;48.888;8.330;2024-02-26T05:17:01;7.10;77.60
75769;DHT22;64379;48.888;8.330;2024-02-26T05:19:27;7.20;77.80
75769;DHT22;64379;48.888;8.330;2024-02-26T05:21:52;7.20;77.10
75769;DHT22;64379;48.888;8.330;2024-02-26T05:24:18;7.20;77.00
75769;DHT22;64379;48.888;8.330;2024-02-26T05:26:46;7.20;76.80
75769;DHT22;64379;48.888;8.330;2024-02-26T05:29:11;7.30;76.20
75769;DHT22;64379;48.888;8.330;2024-02-26T05:31:37;7.40;75.80
75769;DHT22;64379;48.888;8.330;2024-02-26T05:34:02;7.30;75.60
75769;DHT22;64379;48.888;8.330;2024-02-26T05:36:28;7.40;75.60
75769;DHT22;64379;48.888;8.330;2024-02-26T05:39:01;7.40;75.70
75769;DHT22;64379;48.888;8.330;2024-02-26T05:41:26;7.30;76.00
75769;DHT22;64379;48.888;8.330;2024-02-26T05:43:53;7.30;76.00
75769;DHT22;64379;48.888;8.330;2024-02-26T05:46:19;7.30;76.20
75769;DHT22;64379;48.888;8.330;2024-02-26T05:48:51;7.20;76.20
75769;DHT22;64379;48.888;8.330;2024-02-26T05:51:16;7.20;76.60
75769;DHT22;64379;48.888;8.330;2024-02-26T05:53:42;7.20;77.10
75769;DHT22;64379;48.888;8.330;2024-02-26T05:56:08;7.20;77.40
75769;DHT22;64379;48.888;8.330;2024-02-26T05:58:34;7.20;77.50
75769;DHT22;64379;48.888;8.330;2024-02-26T06:01:00;7.20;77.70
75769;DHT22;64379;48.888;8.330;2024-02-26T06:03:26;7.20;77.20
75769;DHT22;64379;48.888;8.330;2024-02-26T06:05:52;7.20;77.50
75769;DHT22;64379;48.888;8.330;2024-02-26T06:08:17;7.20;77.60
75769;DHT22;64379;48.888;8.330;2024-02-26T06:10:43;7.20;77.30
75769;DHT22;64379;48.888;8.330;2024-02-26T06:13:09;7.20;76.90
75769;DHT22;64379;48.888;8.330;2024-02-26T06:15:34;7.20;76.60
75769;DHT22;64379;48.888;8.330;2024-02-26T06:18:00;7.20;76.50
75769;DHT22;64379;48.888;8.330;2024-02-26T06:20:25;7.30;75.90
75769;DHT22;64379;48.888;8.330;2024-02-26T06:22:51;7.30;75.70
75769;DHT22;64379;48.888;8.330;2024-02-26T06:25:17;7.30;75.80
75769;DHT22;64379;48.888;8.330;2024-02-26T06:27:42;7.30;77.20
75769;DHT22;64379;48.888;8.330;2024-02-26T06:30:08;7.30;78.00
75769;DHT22;64379;48.888;8.330;2024-02-26T06:32:36;7.20;78.80
75769;DHT22;64379;48.888;8.330;2024-02-26T06:35:02;7.10;80.70
75769;DHT22;64379;48.888;8.330;2024-02-26T06:37:32;7.00;81.80
75769;DHT22;64379;48.888;8.330;2024-02-26T06:39:59;6.90;82.70
75769;DHT22;64379;48.888;8.330;2024-02-26T06:42:25;6.80;83.80
75769;DHT22;64379;48.888;8.330;2024-02-26T06:44:50;6.70;84.60
75769;DHT22;64379;48.888;8.330;2024-02-26T06:47:16;6.60;85.30
75769;DHT22;64379;48.888;8.330;2024-02-26T06:49:41;6.60;85.60
75769;DHT22;64379;48.888;8.330;2024-02-26T06:52:07;6.60;85.90
75769;DHT22;64379;48.888;8.330;2024-02-26T06:54:33;6.60;86.20
75769;DHT22;64379;48.888;8.330;2024-02-26T06:56:58;6.60;86.40
75769;DHT22;64379;48.888;8.330;2024-02-26T06:59:24;6.60;86.70
75769;DHT22;64379;48.888;8.330;2024-02-26T07:01:50;6.60;86.80
75769;DHT22;64379;48.888;8.330;2024-02-26T07:04:15;6.60;86.90
75769;DHT22;64379;48.888;8.330;2024-02-26T07:06:41;6.60;86.80
75769;DHT22;64379;48.888;8.330;2024-02-26T07:09:08;6.70;86.50
75769;DHT22;64379;48.888;8.330;2024-02-26T07:11:34;6.70;86.40
75769;DHT22;64379;48.888;8.330;2024-02-26T07:13:59;6.70;86.30
75769;DHT22;64379;48.888;8.330;2024-02-26T07:16:26;6.70;86.50
75769;DHT22;64379;48.888;8.330;2024-02-26T07:18:52;6.70;86.60
75769;DHT22;64379;48.888;8.330;2024-02-26T07:21:18;6.50;86.90
75769;DHT22;64379;48.888;8.330;2024-02-26T07:23:43;6.60;87.10
75769;DHT22;64379;48.888;8.330;2024-02-26T07:26:09;6.50;87.00
75769;DHT22;64379;48.888;8.330;2024-02-26T07:28:37;6.70;87.20
75769;DHT22;64379;48.888;8.330;2024-02-26T07:31:03;6.80;87.30
75769;DHT22;64379;48.888;8.330;2024-02-26T07:33:29;6.80;87.10
75769;DHT22;64379;48.888;8.330;2024-02-26T07:35:54;6.90;87.50
75769;DHT22;64379;48.888;8.330;2024-02-26T07:38:20;6.90;87.50
75769;DHT22;64379;48.888;8.330;2024-02-26T07:40:45;7.00;87.30
75769;DHT22;64379;48.888;8.330;2024-02-26T07:43:11;6.90;86.80
75769;DHT22;64379;48.888;8.330;2024-02-26T07:45:37;6.90;86.90
75769;DHT22;64379;48.888;8.330;2024-02-26T07:48:02;6.90;87.10
75769;DHT22;64379;48.888;8.330;2024-02-26T07:50:28;6.90;87.30
75769;DHT22;64379;48.888;8.330;2024-02-26T07:52:54;7.00;87.20
75769;DHT22;64379;48.888;8.330;2024-02-26T07:55:20;7.20;87.00
75769;DHT22;64379;48.888;8.330;2024-02-26T07:57:45;7.20;86.70
75769;DHT22;64379;48.888;8.330;2024-02-26T08:00:11;7.20;86.50
75769;DHT22;64379;48.888;8.330;2024-02-26T08:02:37;7.20;86.20
75769;DHT22;64379;48.888;8.330;2024-02-26T08:05:03;7.20;86.20
75769;DHT22;64379;48.888;8.330;2024-02-26T08:07:30;7.40;86.30
75769;DHT22;64379;48.888;8.330;2024-02-26T08:09:55;7.20;85.70
75769;DHT22;64379;48.888;8.330;2024-02-26T08:12:21;7.20;86.00
75769;DHT22;64379;48.888;8.330;2024-02-26T08:14:46;7.30;86.70
75769;DHT22;64379;48.888;8.330;2024-02-26T08:17:12;7.50;86.80
75769;DHT22;64379;48.888;8.330;2024-02-26T08:19:37;7.90;87.00
75769;DHT22;64379;48.888;8.330;2024-02-26T08:22:03;8.40;86.60
75769;DHT22;64379;48.888;8.330;2024-02-26T08:24:29;8.60;83.80
75769;DHT22;64379;48.888;8.330;2024-02-26T08:26:54;8.60;81.40
75769;DHT22;64379;48.888;8.330;2024-02-26T08:29:20;8.60;81.30
75769;DHT22;64379;48.888;8.330;2024-02-26T08:31:46;8.60;81.20
75769;DHT22;64379;48.888;8.330;2024-02-26T08:34:11;8.90;81.30
75769;DHT22;64379;48.888;8.330;2024-02-26T08:36:37;9.00;80.50
75769;DHT22;64379;48.888;8.330;2024-02-26T08:39:03;9.00;80.40
75769;DHT22;64379;48.888;8.330;2024-02-26T08:41:29;9.20;80.10
75769;DHT22;64379;48.888;8.330;2024-02-26T08:43:54;9.20;79.80
75769;DHT22;64379;48.888;8.330;2024-02-26T08:46:20;9.50;79.00
75769;DHT22;64379;48.888;8.330;2024-02-26T08:48:46;9.70;77.50
75769;DHT22;64379;48.888;8.330;2024-02-26T08:51:11;9.60;78.40
75769;DHT22;64379;48.888;8.330;2024-02-26T08:53:38;9.40;78.70
75769;DHT22;64379;48.888;8.330;2024-02-26T08:56:04;9.80;78.40
75769;DHT22;64379;48.888;8.330;2024-02-26T08:58:30;10.00;76.80
75769;DHT22;64379;48.888;8.330;2024-02-26T09:00:56;10.00;76.10
75769;DHT22;64379;48.888;8.330;2024-02-26T09:03:22;10.10;77.00
75769;DHT22;64379;48.888;8.330;2024-02-26T09:05:47;10.20;76.00
75769;DHT22;64379;48.888;8.330;2024-02-26T09:08:13;10.30;76.40
75769;DHT22;64379;48.888;8.330;2024-02-26T09:10:39;10.20;76.50
75769;DHT22;64379;48.888;8.330;2024-02-26T09:13:05;10.20;77.10
75769;DHT22;64379;48.888;8.330;2024-02-26T09:15:31;10.10;75.80
75769;DHT22;64379;48.888;8.330;2024-02-26T09:17:56;10.00;77.40
75769;DHT22;64379;48.888;8.330;2024-02-26T09:20:22;10.00;78.60
75769;DHT22;64379;48.888;8.330;2024-02-26T09:22:49;10.20;78.10
75769;DHT22;64379;48.888;8.330;2024-02-26T09:25:16;10.30;77.10
75769;DHT22;64379;48.888;8.330;2024-02-26T09:27:43;10.30;77.10
75769;DHT22;64379;48.888;8.330;2024-02-26T09:30:10;10.30;77.50
75769;DHT22;64379;48.888;8.330;2024-02-26T09:32:36;10.60;76.90
75769;DHT22;64379;48.888;8.330;2024-02-26T09:35:08;10.80;75.40
75769;DHT22;64379;48.888;8.330;2024-02-26T09:37:34;11.00;74.20
75769;DHT22;64379;48.888;8.330;2024-02-26T09:40:02;11.00;73.50
75769;DHT22;64379;48.888;8.330;2024-02-26T09:42:31;11.10;73.50
75769;DHT22;64379;48.888;8.330;2024-02-26T09:45:00;11.30;72.40
75769;DHT22;64379;48.888;8.330;2024-02-26T09:47:28;11.50;71.70
75769;DHT22;64379;48.888;8.330;2024-02-26T09:49:56;11.10;72.50
75769;DHT22;64379;48.888;8.330;2024-02-26T09:52:23;11.00;73.70
75769;DHT22;64379;48.888;8.330;2024-02-26T09:54:49;10.90;73.50
75769;DHT22;64379;48.888;8.330;2024-02-26T09:57:16;10.80;73.60
75769;DHT22;64379;48.888;8.330;2024-02-26T09:59:43;11.00;73.90
75769;DHT22;64379;48.888;8.330;2024-02-26T10:02:12;11.10;73.20
75769;DHT22;64379;48.888;8.330;2024-02-26T10:04:39;11.10;72.20
75769;DHT22;64379;48.888;8.330;2024-02-26T10:07:10;10.80;72.90
75769;DHT22;64379;48.888;8.330;2024-02-26T10:09:36;10.80;73.90
75769;DHT22;64379;48.888;8.330;2024-02-26T10:12:03;10.90;74.40
75769;DHT22;64379;48.888;8.330;2024-02-26T10:14:30;11.00;74.00
75769;DHT22;64379;48.888;8.330;2024-02-26T10:16:56;11.20;72.90
75769;DHT22;64379;48.888;8.330;2024-02-26T10:19:26;11.10;73.80
75769;DHT22;64379;48.888;8.330;2024-02-26T10:22:00;11.30;73.20
75769;DHT22;64379;48.888;8.330;2024-02-26T10:24:29;11.90;72.10
75769;DHT22;64379;48.888;8.330;2024-02-26T10:26:56;12.30;70.10
75769;DHT22;64379;48.888;8.330;2024-02-26T10:29:24;12.50;69.00
75769;DHT22;64379;48.888;8.330;2024-02-26T10:31:51;12.80;68.70
75769;DHT22;64379;48.888;8.330;2024-02-26T10:34:18;13.10;66.20
75769;DHT22;64379;48.888;8.330;2024-02-26T10:36:43;12.90;66.00
75769;DHT22;64379;48.888;8.330;2024-02-26T10:39:11;12.90;65.20
75769;DHT22;64379;48.888;8.330;2024-02-26T10:41:37;13.10;65.10
75769;DHT22;64379;48.888;8.330;2024-02-26T10:44:04;13.30;64.90
75769;DHT22;64379;48.888;8.330;2024-02-26T10:46:29;13.50;63.20
75769;DHT22;64379;48.888;8.330;2024-02-26T10:48:56;13.30;62.90
75769;DHT22;64379;48.888;8.330;2024-02-26T10:51:31;13.30;63.70
75769;DHT22;64379;48.888;8.330;2024-02-26T10:53:58;13.50;63.30
75769;DHT22;64379;48.888;8.330;2024-02-26T10:56:26;13.00;64.50
75769;DHT22;64379;48.888;8.330;2024-02-26T10:58:53;13.10;64.20
75769;DHT22;64379;48.888;8.330;2024-02-26T11:01:19;13.50;63.00
75769;DHT22;64379;48.888;8.330;2024-02-26T11:03:48;13.60;63.50
75769;DHT22;64379;48.888;8.330;2024-02-26T11:06:15;13.50;62.70
75769;DHT22;64379;48.888;8.330;2024-02-26T11:08:41;13.30;62.70
75769;DHT22;64379;48.888;8.330;2024-02-26T11:11:07;13.30;63.40
75769;DHT22;64379;48.888;8.330;2024-02-26T11:13:35;13.60;62.20
75769;DHT22;64379;48.888;8.330;2024-02-26T11:16:04;13.70;60.90
75769;DHT22;64379;48.888;8.330;2024-02-26T11:18:31;13.50;62.40
75769;DHT22;64379;48.888;8.330;2024-02-26T11:20:59;13.30;62.30
75769;DHT22;64379;48.888;8.330;2024-02-26T11:23:24;13.50;61.60
75769;DHT22;64379;48.888;8.330;2024-02-26T11:25:52;13.90;60.70
75769;DHT22;64379;48.888;8.330;2024-02-26T11:28:21;14.50;58.60
75769;DHT22;64379;48.888;8.330;2024-02-26T11:30:48;15.50;56.90
75769;DHT22;64379;48.888;8.330;2024-02-26T11:33:15;15.50;54.40
75769;DHT22;64379;48.888;8.330;2024-02-26T11:35:41;15.40;56.00
75769;DHT22;64379;48.888;8.330;2024-02-26T11:38:07;15.20;55.20
75769;DHT22;64379;48.888;8.330;2024-02-26T11:40:37;14.70;56.90
75769;DHT22;64379;48.888;8.330;2024-02-26T11:43:06;14.10;58.10
75769;DHT22;64379;48.888;8.330;2024-02-26T11:45:48;13.60;60.30
75769;DHT22;64379;48.888;8.330;2024-02-26T11:48:16;13.60;59.30
75769;DHT22;64379;48.888;8.330;2024-02-26T11:50:47;13.70;60.10
75769;DHT22;64379;48.888;8.330;2024-02-26T11:53:28;13.70;59.80
75769;DHT22;64379;48.888;8.330;2024-02-26T11:58:45;13.50;60.40
75769;DHT22;64379;48.888;8.330;2024-02-26T12:02:03;13.60;58.80
75769;DHT22;64379;48.888;8.330;2024-02-26T12:04:25;13.70;58.00
75769;DHT22;64379;48.888;8.330;2024-02-26T12:06:55;14.00;57.10
75769;DHT22;64379;48.888;8.330;2024-02-26T12:09:35;14.30;56.50
75769;DHT22;64379;48.888;8.330;2024-02-26T12:12:03;14.40;55.50
75769;DHT22;64379;48.888;8.330;2024-02-26T12:14:29;14.80;57.50
75769;DHT22;64379;48.888;8.330;2024-02-26T12:16:55;15.60;53.30
75769;DHT22;64379;48.888;8.330;2024-02-26T12:19:22;15.50;52.60
75769;DHT22;64379;48.888;8.330;2024-02-26T12:21:51;15.40;52.80
75769;DHT22;64379;48.888;8.330;2024-02-26T12:24:19;16.00;53.10
75769;DHT22;64379;48.888;8.330;2024-02-26T12:26:45;15.40;52.60
75769;DHT22;64379;48.888;8.330;2024-02-26T12:29:11;14.90;54.50
75769;DHT22;64379;48.888;8.330;2024-02-26T12:31:37;14.80;53.90
75769;DHT22;64379;48.888;8.330;2024-02-26T12:34:05;14.50;54.70
75769;DHT22;64379;48.888;8.330;2024-02-26T12:36:31;14.50;55.80
75769;DHT22;64379;48.888;8.330;2024-02-26T12:38:58;14.50;55.30
75769;DHT22;64379;48.888;8.330;2024-02-26T12:41:23;14.60;55.60
75769;DHT22;64379;48.888;8.330;2024-02-26T12:43:50;14.50;54.80
75769;DHT22;64379;48.888;8.330;2024-02-26T12:46:15;14.30;54.70
75769;DHT22;64379;48.888;8.330;2024-02-26T12:48:46;14.50;56.50
75769;DHT22;64379;48.888;8.330;2024-02-26T12:51:12;14.50;55.10
75769;DHT22;64379;48.888;8.330;2024-02-26T12:53:39;14.40;54.50
75769;DHT22;64379;48.888;8.330;2024-02-26T12:56:07;14.50;54.00
75769;DHT22;64379;48.888;8.330;2024-02-26T12:58:34;14.70;54.80
75769;DHT22;64379;48.888;8.330;2024-02-26T13:01:00;15.30;54.40
75769;DHT22;64379;48.888;8.330;2024-02-26T13:03:26;15.80;51.90
75769;DHT22;64379;48.888;8.330;2024-02-26T13:05:53;16.70;50.90
75769;DHT22;64379;48.888;8.330;2024-02-26T13:08:23;16.60;51.60
75769;DHT22;64379;48.888;8.330;2024-02-26T13:10:49;16.90;50.80
75769;DHT22;64379;48.888;8.330;2024-02-26T13:13:17;16.90;50.80
75769;DHT22;64379;48.888;8.330;2024-02-26T13:15:46;16.40;51.30
75769;DHT22;64379;48.888;8.330;2024-02-26T13:18:15;16.00;52.80
75769;DHT22;64379;48.888;8.330;2024-02-26T13:20:41;16.10;52.20
75769;DHT22;64379;48.888;8.330;2024-02-26T13:23:12;15.80;52.80
75769;DHT22;64379;48.888;8.330;2024-02-26T13:25:38;15.50;54.10
75769;DHT22;64379;48.888;8.330;2024-02-26T13:28:15;15.40;53.40
75769;DHT22;64379;48.888;8.330;2024-02-26T13:30:58;15.40;53.20
75769;DHT22;64379;48.888;8.330;2024-02-26T13:33:25;15.40;53.80
75769;DHT22;64379;48.888;8.330;2024-02-26T13:35:52;15.40;54.20
75769;DHT22;64379;48.888;8.330;2024-02-26T13:38:18;15.60;52.60
75769;DHT22;64379;48.888;8.330;2024-02-26T13:40:44;15.80;52.30
75769;DHT22;64379;48.888;8.330;2024-02-26T13:43:09;15.80;52.50
75769;DHT22;64379;48.888;8.330;2024-02-26T13:45:36;15.40;53.70
75769;DHT22;64379;48.888;8.330;2024-02-26T13:48:04;15.10;54.00
75769;DHT22;64379;48.888;8.330;2024-02-26T13:50:30;14.90;54.30
75769;DHT22;64379;48.888;8.330;2024-02-26T13:52:56;14.60;54.70
75769;DHT22;64379;48.888;8.330;2024-02-26T13:55:23;14.60;56.10
75769;DHT22;64379;48.888;8.330;2024-02-26T13:57:51;14.50;55.30
75769;DHT22;64379;48.888;8.330;2024-02-26T14:00:19;14.50;55.50
75769;DHT22;64379;48.888;8.330;2024-02-26T14:02:45;14.50;56.20
75769;DHT22;64379;48.888;8.330;2024-02-26T14:05:10;14.70;55.80
75769;DHT22;64379;48.888;8.330;2024-02-26T14:07:36;14.80;55.80
75769;DHT22;64379;48.888;8.330;2024-02-26T14:10:01;14.80;56.50
75769;DHT22;64379;48.888;8.330;2024-02-26T14:12:27;14.70;55.80
75769;DHT22;64379;48.888;8.330;2024-02-26T14:14:53;15.00;55.10
75769;DHT22;64379;48.888;8.330;2024-02-26T14:17:23;15.10;54.90
75769;DHT22;64379;48.888;8.330;2024-02-26T14:19:49;15.30;53.90
75769;DHT22;64379;48.888;8.330;2024-02-26T14:22:15;15.40;53.90
75769;DHT22;64379;48.888;8.330;2024-02-26T14:24:41;15.20;54.40
75769;DHT22;64379;48.888;8.330;2024-02-26T14:27:09;15.20;54.90
75769;DHT22;64379;48.888;8.330;2024-02-26T14:29:35;15.20;54.90
75769;DHT22;64379;48.888;8.330;2024-02-26T14:32:03;15.30;54.40
75769;DHT22;64379;48.888;8.330;2024-02-26T14:34:29;15.20;53.90
75769;DHT22;64379;48.888;8.330;2024-02-26T14:36:54;14.90;55.00
75769;DHT22;64379;48.888;8.330;2024-02-26T14:39:21;14.60;55.50
75769;DHT22;64379;48.888;8.330;2024-02-26T14:41:46;14.70;55.10
75769;DHT22;64379;48.888;8.330;2024-02-26T14:44:12;14.80;55.20
75769;DHT22;64379;48.888;8.330;2024-02-26T14:46:38;14.80;54.30
75769;DHT22;64379;48.888;8.330;2024-02-26T14:49:03;14.90;55.70
75769;DHT22;64379;48.888;8.330;2024-02-26T14:51:29;15.00;55.40
75769;DHT22;64379;48.888;8.330;2024-02-26T14:53:55;14.70;55.20
75769;DHT22;64379;48.888;8.330;2024-02-26T14:56:20;14.40;55.50
75769;DHT22;64379;48.888;8.330;2024-02-26T14:58:46;14.30;56.60
75769;DHT22;64379;48.888;8.330;2024-02-26T15:01:11;14.30;57.50
75769;DHT22;64379;48.888;8.330;2024-02-26T15:03:37;14.50;56.60
75769;DHT22;64379;48.888;8.330;2024-02-26T15:06:03;14.30;55.80
75769;DHT22;64379;48.888;8.330;2024-02-26T15:08:29;14.10;56.70
75769;DHT22;64379;48.888;8.330;2024-02-26T15:10:54;14.00;56.60
75769;DHT22;64379;48.888;8.330;2024-02-26T15:13:20;13.90;56.40
75769;DHT22;64379;48.888;8.330;2024-02-26T15:15:45;13.90;56.30
75769;DHT22;64379;48.888;8.330;2024-02-26T15:18:11;13.80;57.10
75769;DHT22;64379;48.888;8.330;2024-02-26T15:20:42;13.80;56.50
75769;DHT22;64379;48.888;8.330;2024-02-26T15:23:13;13.90;56.80
75769;DHT22;64379;48.888;8.330;2024-02-26T15:25:39;13.90;57.10
75769;DHT22;64379;48.888;8.330;2024-02-26T15:28:07;14.10;56.60
75769;DHT22;64379;48.888;8.330;2024-02-26T15:30:32;14.10;56.60
75769;DHT22;64379;48.888;8.330;2024-02-26T15:32:59;14.00;56.80
75769;DHT22;64379;48.888;8.330;2024-02-26T15:35:25;13.70;56.50